»·PEaware :: N276ND KSUN-KBOI

N276ND :: KSUN-KBOI

FLIGHT INFORMATION

Flight Status: Arrived
Operator: Privately registered:
United States
More flights under this callsign
Pilot: Giorgi S. (28323)
Aircraft: MOONEY M-20 201 202 205 220 ATS MSE
(M20P)
More flights by this aircraft type
Origin: KSUN Friedman Meml
United States
Destination: KBOI Boise Air Terminal/Gowen
United States
More flights between these airports :: More routes between these airports
Route: +AUREL3 FRESN V484 KINZE V330 BOI
File this flight plan on PilotEdge
Remarks:
Altitude:
(Current/Filed)
10,000ft
Speed:
(Current/Filed)
170kts
Departed: 22-May-20 06:29 PM
Arrived: 22-May-20 07:19 PM
Distance/Time
Traveled:
84nm/0:50
Distance/Time
To Go:
Arrived

Flight Plot

Page will automatically refresh every two minutes.


Map Options




Map Legend


Flown Route
Filed Route
Departure Airport
Arrival Airport
Navaid (VOR, NDB)
Fix

Horizontal Profiles

Position Reports

Time Latitude Longitude Heading Altitude Ground
Speed
22-May-20 18:22 43.507133 -114.301011 159 5301ft 0kts
22-May-20 18:23 43.507133 -114.301011 159 5301ft 0kts
22-May-20 18:24 43.507133 -114.301011 159 5301ft 0kts
22-May-20 18:25 43.507135 -114.300926 39 5301ft 3kts
22-May-20 18:26 43.509264 -114.302320 324 5307ft 20kts
22-May-20 18:27 43.511354 -114.304326 347 5310ft 0kts
22-May-20 18:28 43.508136 -114.299770 144 5303ft 86kts
22-May-20 18:29 43.483123 -114.282220 163 6163ft 109kts
22-May-20 18:30 43.453858 -114.268335 155 7199ft 114kts
22-May-20 18:31 43.423521 -114.254805 164 8209ft 118kts
22-May-20 18:32 43.392441 -114.241242 165 9193ft 119kts
22-May-20 18:33 43.360042 -114.229783 168 10013ft 128kts
22-May-20 18:34 43.319475 -114.230220 205 10017ft 168kts
22-May-20 18:35 43.275837 -114.259421 207 10011ft 177kts
22-May-20 18:36 43.232510 -114.292782 207 10019ft 179kts
22-May-20 18:37 43.187588 -114.322834 203 10010ft 180kts
22-May-20 18:38 43.141884 -114.348854 203 10015ft 176kts
22-May-20 18:39 43.098209 -114.378759 214 10024ft 174kts
22-May-20 18:40 43.095655 -114.439808 289 10027ft 179kts
22-May-20 18:41 43.111296 -114.503935 288 10020ft 180kts
22-May-20 18:42 43.128107 -114.569470 288 10018ft 183kts
22-May-20 18:43 43.146208 -114.634775 289 10016ft 184kts
22-May-20 18:44 43.157952 -114.701553 254 10030ft 181kts
22-May-20 18:45 43.138160 -114.764638 236 10018ft 181kts
22-May-20 18:46 43.108804 -114.820573 230 10022ft 180kts
22-May-20 18:47 43.075537 -114.871656 224 10025ft 179kts
22-May-20 18:48 43.045267 -114.923621 264 10036ft 181kts
22-May-20 18:49 43.040461 -114.992389 263 10024ft 179kts
22-May-20 18:50 43.035781 -115.058387 263 10020ft 169kts
22-May-20 18:51 43.031305 -115.121057 264 10015ft 164kts
22-May-20 18:52 43.026879 -115.182938 266 10011ft 162kts
22-May-20 18:53 43.022462 -115.244426 267 10010ft 163kts
22-May-20 18:54 43.018000 -115.305959 267 10010ft 163kts
22-May-20 18:55 43.037931 -115.359159 307 10009ft 160kts
22-May-20 18:56 43.066805 -115.407697 310 10010ft 168kts
22-May-20 18:57 43.097259 -115.456537 311 10010ft 170kts
22-May-20 18:58 43.128467 -115.506346 311 10009ft 171kts
22-May-20 18:59 43.159236 -115.555503 311 10009ft 171kts
22-May-20 19:00 43.190259 -115.605147 311 10008ft 171kts
22-May-20 19:01 43.221098 -115.654646 310 10009ft 171kts
22-May-20 19:02 43.257375 -115.694873 326 10005ft 160kts
22-May-20 19:03 43.292884 -115.725995 326 10010ft 148kts
22-May-20 19:04 43.327391 -115.756023 326 10011ft 146kts
22-May-20 19:05 43.361284 -115.785521 326 9656ft 124kts
22-May-20 19:06 43.388591 -115.809404 325 8596ft 119kts
22-May-20 19:07 43.409165 -115.842407 301 7061ft 108kts
22-May-20 19:08 43.425475 -115.879735 300 7028ft 125kts
22-May-20 19:09 43.446596 -115.922125 310 6692ft 151kts
22-May-20 19:10 43.467599 -115.963207 300 5884ft 102kts
22-May-20 19:11 43.480376 -115.992623 297 5932ft 92kts
22-May-20 19:12 43.492972 -116.027053 297 5888ft 107kts
22-May-20 19:13 43.506676 -116.065418 293 5128ft 115kts
22-May-20 19:14 43.520296 -116.102388 299 4528ft 109kts
22-May-20 19:15 43.533569 -116.139087 297 3909ft 105kts
22-May-20 19:16 43.545564 -116.172381 296 3451ft 96kts
22-May-20 19:18 43.556242 -116.202397 295 2996ft 87kts
22-May-20 19:19 43.562884 -116.224400 212 2843ft 15kts
22-May-20 19:20 43.563104 -116.226236 294 2840ft 21kts
22-May-20 19:21 43.563380 -116.234698 203 2824ft 14kts

Navigation Log

Ident Type
Flight plan parsing failed, navigation log unavailable